sensor_id;sensor_type;location;lat;lon;timestamp;pressure;altitude;pressure_sealevel;temperature;humidity
30618;BME280;17384;51.214;9.202;2023-02-02T00:00:52;98839.59;;;3.25;78.12
30618;BME280;17384;51.214;9.202;2023-02-02T00:03:17;98842.09;;;3.27;78.63
30618;BME280;17384;51.214;9.202;2023-02-02T00:05:47;98823.97;;;3.29;77.93
30618;BME280;17384;51.214;9.202;2023-02-02T00:08:14;98833.06;;;3.28;78.31
30618;BME280;17384;51.214;9.202;2023-02-02T00:10:40;98834.03;;;3.19;78.71
30618;BME280;17384;51.214;9.202;2023-02-02T00:13:05;98845.44;;;3.21;78.65
30618;BME280;17384;51.214;9.202;2023-02-02T00:15:31;98851.16;;;3.26;78.01
30618;BME280;17384;51.214;9.202;2023-02-02T00:17:56;98834.69;;;3.29;78.05
30618;BME280;17384;51.214;9.202;2023-02-02T00:20:21;98835.53;;;3.29;77.98
30618;BME280;17384;51.214;9.202;2023-02-02T00:22:48;98820.28;;;3.30;78.44
30618;BME280;17384;51.214;9.202;2023-02-02T00:25:14;98836.03;;;3.33;78.07
30618;BME280;17384;51.214;9.202;2023-02-02T00:27:39;98837.53;;;3.35;77.22
30618;BME280;17384;51.214;9.202;2023-02-02T00:30:05;98840.06;;;3.29;77.86
30618;BME280;17384;51.214;9.202;2023-02-02T00:32:31;98842.94;;;3.27;77.79
30618;BME280;17384;51.214;9.202;2023-02-02T00:34:56;98849.94;;;3.28;77.86
30618;BME280;17384;51.214;9.202;2023-02-02T00:37:22;98836.06;;;3.25;77.46
30618;BME280;17384;51.214;9.202;2023-02-02T00:39:47;98844.75;;;3.35;77.04
30618;BME280;17384;51.214;9.202;2023-02-02T00:42:13;98857.16;;;3.36;77.08
30618;BME280;17384;51.214;9.202;2023-02-02T00:44:38;98848.94;;;3.37;76.73
30618;BME280;17384;51.214;9.202;2023-02-02T00:47:22;98850.63;;;3.38;77.11
30618;BME280;17384;51.214;9.202;2023-02-02T00:49:48;98831.34;;;3.35;76.97
30618;BME280;17384;51.214;9.202;2023-02-02T00:52:13;98848.28;;;3.27;77.53
30618;BME280;17384;51.214;9.202;2023-02-02T00:54:39;98841.25;;;3.26;77.43
30618;BME280;17384;51.214;9.202;2023-02-02T00:57:05;98853.47;;;3.21;77.59
30618;BME280;17384;51.214;9.202;2023-02-02T00:59:30;98854.47;;;3.20;77.80
30618;BME280;17384;51.214;9.202;2023-02-02T01:01:56;98853.81;;;3.18;77.29
30618;BME280;17384;51.214;9.202;2023-02-02T01:04:22;98850.13;;;3.19;77.51
30618;BME280;17384;51.214;9.202;2023-02-02T01:06:47;98855.84;;;3.24;77.40
30618;BME280;17384;51.214;9.202;2023-02-02T01:09:13;98872.22;;;3.29;77.34
30618;BME280;17384;51.214;9.202;2023-02-02T01:11:38;98865.84;;;3.30;77.63
30618;BME280;17384;51.214;9.202;2023-02-02T01:14:04;98866.53;;;3.32;77.36
30618;BME280;17384;51.214;9.202;2023-02-02T01:16:29;98874.41;;;3.33;77.69
30618;BME280;17384;51.214;9.202;2023-02-02T01:18:55;98873.25;;;3.36;77.67
30618;BME280;17384;51.214;9.202;2023-02-02T01:21:20;98858.16;;;3.35;77.97
30618;BME280;17384;51.214;9.202;2023-02-02T01:23:47;98867.22;;;3.42;77.56
30618;BME280;17384;51.214;9.202;2023-02-02T01:26:13;98861.34;;;3.38;77.46
30618;BME280;17384;51.214;9.202;2023-02-02T01:28:39;98862.00;;;3.49;76.94
30618;BME280;17384;51.214;9.202;2023-02-02T01:31:13;98866.88;;;3.45;77.24
30618;BME280;17384;51.214;9.202;2023-02-02T01:33:39;98863.34;;;3.36;77.04
30618;BME280;17384;51.214;9.202;2023-02-02T01:36:08;98874.06;;;3.36;76.91
30618;BME280;17384;51.214;9.202;2023-02-02T01:38:35;98873.41;;;3.43;76.64
30618;BME280;17384;51.214;9.202;2023-02-02T01:41:01;98868.72;;;3.45;76.19
30618;BME280;17384;51.214;9.202;2023-02-02T01:43:48;98873.25;;;3.36;76.63
30618;BME280;17384;51.214;9.202;2023-02-02T01:46:19;98876.41;;;3.31;76.46
30618;BME280;17384;51.214;9.202;2023-02-02T01:51:37;98867.53;;;3.31;76.75
30618;BME280;17384;51.214;9.202;2023-02-02T01:54:07;98874.28;;;3.27;77.14
30618;BME280;17384;51.214;9.202;2023-02-02T01:56:39;98875.09;;;3.27;77.36
30618;BME280;17384;51.214;9.202;2023-02-02T01:59:08;98871.38;;;3.28;77.33
30618;BME280;17384;51.214;9.202;2023-02-02T02:01:34;98885.16;;;3.25;77.62
30618;BME280;17384;51.214;9.202;2023-02-02T02:04:00;98874.28;;;3.27;77.15
30618;BME280;17384;51.214;9.202;2023-02-02T02:06:25;98874.91;;;3.29;77.49
30618;BME280;17384;51.214;9.202;2023-02-02T02:08:52;98883.78;;;3.29;77.49
30618;BME280;17384;51.214;9.202;2023-02-02T02:11:21;98882.94;;;3.29;77.49
30618;BME280;17384;51.214;9.202;2023-02-02T02:13:47;98882.63;;;3.32;77.54
30618;BME280;17384;51.214;9.202;2023-02-02T02:34:08;98901.72;;;3.37;77.50
30618;BME280;17384;51.214;9.202;2023-02-02T02:42:26;98902.25;;;3.40;77.41
30618;BME280;17384;51.214;9.202;2023-02-02T02:44:54;98902.06;;;3.42;76.68
30618;BME280;17384;51.214;9.202;2023-02-02T02:47:21;98885.81;;;3.44;76.72
30618;BME280;17384;51.214;9.202;2023-02-02T02:49:47;98895.69;;;3.43;76.77
30618;BME280;17384;51.214;9.202;2023-02-02T02:52:13;98906.75;;;3.40;77.49
30618;BME280;17384;51.214;9.202;2023-02-02T02:55:02;98896.88;;;3.40;77.23
30618;BME280;17384;51.214;9.202;2023-02-02T02:57:37;98903.25;;;3.39;77.39
30618;BME280;17384;51.214;9.202;2023-02-02T03:03:01;98899.38;;;3.42;77.38
30618;BME280;17384;51.214;9.202;2023-02-02T03:10:41;98900.06;;;3.36;78.17
30618;BME280;17384;51.214;9.202;2023-02-02T03:13:10;98902.91;;;3.43;77.84
30618;BME280;17384;51.214;9.202;2023-02-02T03:15:41;98910.47;;;3.47;77.90
30618;BME280;17384;51.214;9.202;2023-02-02T03:18:07;98902.56;;;3.46;78.14
30618;BME280;17384;51.214;9.202;2023-02-02T03:20:33;98905.09;;;3.39;78.73
30618;BME280;17384;51.214;9.202;2023-02-02T03:22:59;98918.16;;;3.34;79.22
30618;BME280;17384;51.214;9.202;2023-02-02T03:25:24;98910.94;;;3.34;79.10
30618;BME280;17384;51.214;9.202;2023-02-02T03:27:50;98901.72;;;3.37;79.19
30618;BME280;17384;51.214;9.202;2023-02-02T03:30:16;98908.78;;;3.38;79.21
30618;BME280;17384;51.214;9.202;2023-02-02T03:32:42;98911.63;;;3.45;79.22
30618;BME280;17384;51.214;9.202;2023-02-02T03:35:08;98922.69;;;3.50;79.38
30618;BME280;17384;51.214;9.202;2023-02-02T03:37:34;98927.91;;;3.51;78.90
30618;BME280;17384;51.214;9.202;2023-02-02T03:39:59;98920.81;;;3.58;78.80
30618;BME280;17384;51.214;9.202;2023-02-02T03:42:25;98921.19;;;3.55;79.40
30618;BME280;17384;51.214;9.202;2023-02-02T03:44:50;98919.84;;;3.51;79.40
30618;BME280;17384;51.214;9.202;2023-02-02T03:47:16;98920.81;;;3.58;78.85
30618;BME280;17384;51.214;9.202;2023-02-02T03:49:42;98924.19;;;3.60;78.96
30618;BME280;17384;51.214;9.202;2023-02-02T03:52:07;98930.38;;;3.61;78.99
30618;BME280;17384;51.214;9.202;2023-02-02T03:54:33;98931.22;;;3.61;79.36
30618;BME280;17384;51.214;9.202;2023-02-02T03:56:58;98927.03;;;3.59;79.48
30618;BME280;17384;51.214;9.202;2023-02-02T03:59:24;98924.69;;;3.64;79.13
30618;BME280;17384;51.214;9.202;2023-02-02T04:01:49;98930.06;;;3.72;78.97
30618;BME280;17384;51.214;9.202;2023-02-02T04:04:14;98925.88;;;3.69;79.72
30618;BME280;17384;51.214;9.202;2023-02-02T04:06:40;98941.13;;;3.69;79.18
30618;BME280;17384;51.214;9.202;2023-02-02T04:09:06;98932.91;;;3.70;79.16
30618;BME280;17384;51.214;9.202;2023-02-02T04:11:31;98930.56;;;3.76;78.84
30618;BME280;17384;51.214;9.202;2023-02-02T04:13:56;98925.88;;;3.78;78.81
30618;BME280;17384;51.214;9.202;2023-02-02T04:16:22;98921.00;;;3.73;79.10
30618;BME280;17384;51.214;9.202;2023-02-02T04:18:47;98923.53;;;3.74;78.97
30618;BME280;17384;51.214;9.202;2023-02-02T04:21:13;98908.94;;;3.69;79.66
30618;BME280;17384;51.214;9.202;2023-02-02T04:23:38;98911.94;;;3.66;79.64
30618;BME280;17384;51.214;9.202;2023-02-02T04:26:04;98918.81;;;3.60;80.04
30618;BME280;17384;51.214;9.202;2023-02-02T04:28:30;98921.84;;;3.65;79.71
30618;BME280;17384;51.214;9.202;2023-02-02T04:30:55;98917.47;;;3.64;79.37
30618;BME280;17384;51.214;9.202;2023-02-02T04:33:23;98922.84;;;3.72;79.08
30618;BME280;17384;51.214;9.202;2023-02-02T04:35:48;98922.34;;;3.69;79.02
30618;BME280;17384;51.214;9.202;2023-02-02T04:38:14;98929.72;;;3.67;79.31
30618;BME280;17384;51.214;9.202;2023-02-02T04:40:41;98923.34;;;3.68;79.44
30618;BME280;17384;51.214;9.202;2023-02-02T04:43:06;98933.91;;;3.69;79.42
30618;BME280;17384;51.214;9.202;2023-02-02T04:45:33;98931.41;;;3.68;79.03
30618;BME280;17384;51.214;9.202;2023-02-02T04:47:58;98943.13;;;3.75;78.47
30618;BME280;17384;51.214;9.202;2023-02-02T04:50:24;98930.56;;;3.76;78.13
30618;BME280;17384;51.214;9.202;2023-02-02T04:52:49;98953.03;;;3.74;78.34
30618;BME280;17384;51.214;9.202;2023-02-02T04:55:15;98951.34;;;3.73;78.60
30618;BME280;17384;51.214;9.202;2023-02-02T04:57:41;98965.09;;;3.70;78.47
30618;BME280;17384;51.214;9.202;2023-02-02T05:00:08;98961.75;;;3.68;79.13
30618;BME280;17384;51.214;9.202;2023-02-02T05:02:36;98948.00;;;3.71;78.48
30618;BME280;17384;51.214;9.202;2023-02-02T05:05:02;98959.06;;;3.68;77.31
30618;BME280;17384;51.214;9.202;2023-02-02T05:07:28;98961.91;;;3.75;76.30
30618;BME280;17384;51.214;9.202;2023-02-02T05:09:54;98941.47;;;3.74;77.00
30618;BME280;17384;51.214;9.202;2023-02-02T05:12:19;98951.19;;;3.67;76.74
30618;BME280;17384;51.214;9.202;2023-02-02T05:14:45;98956.03;;;3.63;77.40
30618;BME280;17384;51.214;9.202;2023-02-02T05:17:10;98949.84;;;3.63;77.42
30618;BME280;17384;51.214;9.202;2023-02-02T05:19:36;98965.44;;;3.59;77.79
30618;BME280;17384;51.214;9.202;2023-02-02T12:26:13;99298.59;;;1.21;84.97
30618;BME280;17384;51.214;9.202;2023-02-02T12:29:16;99289.72;;;1.30;84.48
30618;BME280;17384;51.214;9.202;2023-02-02T12:31:56;99302.81;;;1.23;84.35
30618;BME280;17384;51.214;9.202;2023-02-02T12:50:41;99299.06;;;0.87;85.25
30618;BME280;17384;51.214;9.202;2023-02-02T13:04:05;99307.91;;;0.97;86.27
30618;BME280;17384;51.214;9.202;2023-02-02T13:11:52;99304.06;;;1.10;85.96
30618;BME280;17384;51.214;9.202;2023-02-02T13:14:21;99309.00;;;1.14;85.86
30618;BME280;17384;51.214;9.202;2023-02-02T13:16:52;99314.91;;;1.18;85.57
30618;BME280;17384;51.214;9.202;2023-02-02T13:19:29;99304.22;;;1.18;85.70
30618;BME280;17384;51.214;9.202;2023-02-02T13:21:57;99296.06;;;1.19;85.76
30618;BME280;17384;51.214;9.202;2023-02-02T13:24:34;99305.91;;;1.19;85.82
30618;BME280;17384;51.214;9.202;2023-02-02T13:27:04;99317.44;;;1.19;85.94
30618;BME280;17384;51.214;9.202;2023-02-02T13:29:42;99312.09;;;1.19;86.15
30618;BME280;17384;51.214;9.202;2023-02-02T13:32:31;99328.69;;;1.23;86.11
30618;BME280;17384;51.214;9.202;2023-02-02T13:35:20;99320.53;;;1.24;86.42
30618;BME280;17384;51.214;9.202;2023-02-02T13:40:26;99315.47;;;1.12;86.70
30618;BME280;17384;51.214;9.202;2023-02-02T13:42:54;99330.94;;;1.27;86.46
30618;BME280;17384;51.214;9.202;2023-02-02T14:01:24;99329.75;;;1.40;85.94
30618;BME280;17384;51.214;9.202;2023-02-02T14:03:53;99319.91;;;1.40;86.04
30618;BME280;17384;51.214;9.202;2023-02-02T14:06:21;99316.25;;;1.41;86.14
30618;BME280;17384;51.214;9.202;2023-02-02T14:08:57;99324.97;;;1.43;86.07
30618;BME280;17384;51.214;9.202;2023-02-02T14:13:51;99330.47;;;1.42;85.76
30618;BME280;17384;51.214;9.202;2023-02-02T14:19:03;99321.03;;;1.47;86.23
30618;BME280;17384;51.214;9.202;2023-02-02T14:24:00;99341.72;;;1.45;86.02
30618;BME280;17384;51.214;9.202;2023-02-02T14:26:45;99348.31;;;1.51;86.23
30618;BME280;17384;51.214;9.202;2023-02-02T14:34:41;99348.88;;;1.54;86.16
30618;BME280;17384;51.214;9.202;2023-02-02T14:37:30;99356.63;;;1.48;86.26
30618;BME280;17384;51.214;9.202;2023-02-02T14:48:40;99360.69;;;1.52;86.38
30618;BME280;17384;51.214;9.202;2023-02-02T14:51:19;99365.63;;;1.56;86.54
30618;BME280;17384;51.214;9.202;2023-02-02T14:53:51;99366.31;;;1.58;86.37
30618;BME280;17384;51.214;9.202;2023-02-02T14:56:19;99360.84;;;1.60;86.06
30618;BME280;17384;51.214;9.202;2023-02-02T14:58:59;99365.19;;;1.61;86.08
30618;BME280;17384;51.214;9.202;2023-02-02T15:01:30;99368.00;;;1.59;86.15
30618;BME280;17384;51.214;9.202;2023-02-02T15:06:35;99391.66;;;1.54;86.83
30618;BME280;17384;51.214;9.202;2023-02-02T15:14:41;99388.78;;;1.65;87.08
30618;BME280;17384;51.214;9.202;2023-02-02T15:17:49;99381.75;;;1.64;87.28
30618;BME280;17384;51.214;9.202;2023-02-02T15:25:25;99387.66;;;1.68;87.05
30618;BME280;17384;51.214;9.202;2023-02-02T15:28:01;99382.03;;;1.71;87.01
30618;BME280;17384;51.214;9.202;2023-02-02T15:30:30;99388.50;;;1.68;86.82
30618;BME280;17384;51.214;9.202;2023-02-02T15:33:05;99386.53;;;1.70;86.60
30618;BME280;17384;51.214;9.202;2023-02-02T15:35:31;99383.75;;;1.62;86.92
30618;BME280;17384;51.214;9.202;2023-02-02T15:38:00;99395.00;;;1.66;87.20
30618;BME280;17384;51.214;9.202;2023-02-02T15:40:29;99395.84;;;1.66;87.68
30618;BME280;17384;51.214;9.202;2023-02-02T15:43:01;99404.84;;;1.65;87.46
30618;BME280;17384;51.214;9.202;2023-02-02T15:48:13;99397.53;;;1.67;87.70
30618;BME280;17384;51.214;9.202;2023-02-02T15:50:45;99396.16;;;1.54;87.95
30618;BME280;17384;51.214;9.202;2023-02-02T15:53:32;99401.88;;;1.68;88.00
30618;BME280;17384;51.214;9.202;2023-02-02T15:55:58;99407.97;;;1.61;88.27
30618;BME280;17384;51.214;9.202;2023-02-02T15:58:32;99417.06;;;1.78;87.87
30618;BME280;17384;51.214;9.202;2023-02-02T16:01:01;99417.13;;;1.49;88.06
30618;BME280;17384;51.214;9.202;2023-02-02T16:06:17;99418.97;;;1.58;88.21
30618;BME280;17384;51.214;9.202;2023-02-02T16:08:44;99421.34;;;1.51;88.34
30618;BME280;17384;51.214;9.202;2023-02-02T16:11:19;99414.31;;;1.50;88.61
30618;BME280;17384;51.214;9.202;2023-02-02T16:16:29;99431.75;;;1.54;88.84
30618;BME280;17384;51.214;9.202;2023-02-02T16:21:30;99433.31;;;1.57;88.97
30618;BME280;17384;51.214;9.202;2023-02-02T16:23:57;99439.22;;;1.60;88.77
30618;BME280;17384;51.214;9.202;2023-02-02T16:26:26;99439.78;;;1.54;89.03
30618;BME280;17384;51.214;9.202;2023-02-02T16:28:53;99451.72;;;1.69;88.36
30618;BME280;17384;51.214;9.202;2023-02-02T16:31:19;99440.44;;;1.66;88.00
30618;BME280;17384;51.214;9.202;2023-02-02T16:33:44;99443.88;;;1.58;88.31
30618;BME280;17384;51.214;9.202;2023-02-02T16:38:42;99465.69;;;1.63;88.59
30618;BME280;17384;51.214;9.202;2023-02-02T16:41:10;99465.69;;;1.54;88.65
30618;BME280;17384;51.214;9.202;2023-02-02T16:43:40;99474.69;;;1.53;88.72
30618;BME280;17384;51.214;9.202;2023-02-02T16:46:13;99462.69;;;1.66;89.09
30618;BME280;17384;51.214;9.202;2023-02-02T16:48:54;99472.69;;;1.64;88.99
30618;BME280;17384;51.214;9.202;2023-02-02T16:51:26;99471.03;;;1.54;89.26
30618;BME280;17384;51.214;9.202;2023-02-02T16:53:59;99470.88;;;1.55;89.60
30618;BME280;17384;51.214;9.202;2023-02-02T16:56:37;99462.56;;;1.39;90.37
30618;BME280;17384;51.214;9.202;2023-02-02T16:59:12;99465.94;;;1.41;90.50
30618;BME280;17384;51.214;9.202;2023-02-02T17:01:47;99475.66;;;1.42;90.69
30618;BME280;17384;51.214;9.202;2023-02-02T17:04:30;99460.03;;;1.47;90.65
30618;BME280;17384;51.214;9.202;2023-02-02T17:07:05;99472.16;;;1.42;90.39
30618;BME280;17384;51.214;9.202;2023-02-02T17:09:35;99465.66;;;1.44;90.70
30618;BME280;17384;51.214;9.202;2023-02-02T17:12:21;99462.88;;;1.55;90.18
30618;BME280;17384;51.214;9.202;2023-02-02T17:15:02;99458.38;;;1.56;90.00
30618;BME280;17384;51.214;9.202;2023-02-02T17:17:29;99464.56;;;1.47;89.94
30618;BME280;17384;51.214;9.202;2023-02-02T17:19:55;99474.97;;;1.40;90.23
30618;BME280;17384;51.214;9.202;2023-02-02T17:22:24;99481.72;;;1.44;90.28
30618;BME280;17384;51.214;9.202;2023-02-02T17:24:51;99486.78;;;1.47;90.42
30618;BME280;17384;51.214;9.202;2023-02-02T17:29:49;99485.13;;;1.37;90.11
30618;BME280;17384;51.214;9.202;2023-02-02T17:32:14;99490.88;;;1.51;90.02
30618;BME280;17384;51.214;9.202;2023-02-02T17:34:40;99486.22;;;1.63;89.67
30618;BME280;17384;51.214;9.202;2023-02-02T17:37:05;99486.22;;;1.53;89.96
30618;BME280;17384;51.214;9.202;2023-02-02T17:39:31;99487.19;;;1.43;90.26
30618;BME280;17384;51.214;9.202;2023-02-02T17:41:56;99470.19;;;1.44;90.68
30618;BME280;17384;51.214;9.202;2023-02-02T17:44:22;99476.78;;;1.49;90.66
30618;BME280;17384;51.214;9.202;2023-02-02T17:46:48;99479.47;;;1.49;90.57
30618;BME280;17384;51.214;9.202;2023-02-02T17:49:14;99489.75;;;1.54;90.48
30618;BME280;17384;51.214;9.202;2023-02-02T17:51:39;99492.00;;;1.58;90.70
30618;BME280;17384;51.214;9.202;2023-02-02T17:54:12;99488.06;;;1.62;90.31
30618;BME280;17384;51.214;9.202;2023-02-02T17:56:38;99491.56;;;1.63;90.48
30618;BME280;17384;51.214;9.202;2023-02-02T17:59:03;99486.47;;;1.69;89.91
30618;BME280;17384;51.214;9.202;2023-02-02T18:01:29;99484.22;;;1.65;89.99
30618;BME280;17384;51.214;9.202;2023-02-02T18:03:54;99480.31;;;1.59;90.10
30618;BME280;17384;51.214;9.202;2023-02-02T18:06:20;99469.19;;;1.45;90.36
30618;BME280;17384;51.214;9.202;2023-02-02T18:08:45;99467.09;;;1.48;90.34
30618;BME280;17384;51.214;9.202;2023-02-02T18:11:12;99478.47;;;1.50;90.56
30618;BME280;17384;51.214;9.202;2023-02-02T18:13:39;99476.66;;;1.60;90.57
30618;BME280;17384;51.214;9.202;2023-02-02T18:16:06;99473.38;;;1.66;90.56
30618;BME280;17384;51.214;9.202;2023-02-02T18:18:32;99477.19;;;1.74;90.37
30618;BME280;17384;51.214;9.202;2023-02-02T18:20:57;99462.69;;;1.76;89.93
30618;BME280;17384;51.214;9.202;2023-02-02T18:23:23;99453.53;;;1.69;89.64
30618;BME280;17384;51.214;9.202;2023-02-02T18:25:49;99452.13;;;1.75;89.95
30618;BME280;17384;51.214;9.202;2023-02-02T18:28:14;99468.88;;;1.77;89.45
30618;BME280;17384;51.214;9.202;2023-02-02T18:30:41;99468.88;;;1.77;89.57
30618;BME280;17384;51.214;9.202;2023-02-02T18:33:13;99469.16;;;1.74;89.34
30618;BME280;17384;51.214;9.202;2023-02-02T18:35:42;99474.94;;;1.79;89.34
30618;BME280;17384;51.214;9.202;2023-02-02T18:38:08;99455.94;;;1.72;89.80
30618;BME280;17384;51.214;9.202;2023-02-02T18:40:34;99459.50;;;1.63;89.86
30618;BME280;17384;51.214;9.202;2023-02-02T18:42:59;99471.88;;;1.54;90.32
30618;BME280;17384;51.214;9.202;2023-02-02T18:45:25;99464.56;;;1.56;90.30
30618;BME280;17384;51.214;9.202;2023-02-02T18:47:50;99465.25;;;1.58;90.55
30618;BME280;17384;51.214;9.202;2023-02-02T18:50:16;99468.78;;;1.59;90.50
30618;BME280;17384;51.214;9.202;2023-02-02T18:52:41;99470.19;;;1.53;90.50
30618;BME280;17384;51.214;9.202;2023-02-02T18:55:07;99463.69;;;1.46;90.67
30618;BME280;17384;51.214;9.202;2023-02-02T18:57:33;99464.56;;;1.56;90.92
30618;BME280;17384;51.214;9.202;2023-02-02T18:59:59;99472.00;;;1.62;90.28
30618;BME280;17384;51.214;9.202;2023-02-02T19:02:24;99463.00;;;1.63;90.23
30618;BME280;17384;51.214;9.202;2023-02-02T19:04:50;99461.19;;;1.64;90.28
30618;BME280;17384;51.214;9.202;2023-02-02T19:07:34;99467.34;;;1.64;90.32
30618;BME280;17384;51.214;9.202;2023-02-02T19:10:18;99467.06;;;1.67;90.28
30618;BME280;17384;51.214;9.202;2023-02-02T19:13:07;99468.47;;;1.72;90.01
30618;BME280;17384;51.214;9.202;2023-02-02T19:15:36;99451.16;;;1.66;90.07
30618;BME280;17384;51.214;9.202;2023-02-02T19:18:19;99459.16;;;1.66;90.16
30618;BME280;17384;51.214;9.202;2023-02-02T19:20:47;99460.03;;;1.66;90.09
30618;BME280;17384;51.214;9.202;2023-02-02T19:23:22;99454.13;;;1.63;90.06
30618;BME280;17384;51.214;9.202;2023-02-02T19:25:54;99441.00;;;1.69;89.62
30618;BME280;17384;51.214;9.202;2023-02-02T19:30:45;99446.78;;;1.65;90.07
30618;BME280;17384;51.214;9.202;2023-02-02T19:33:12;99459.03;;;1.67;90.19
30618;BME280;17384;51.214;9.202;2023-02-02T19:35:38;99452.41;;;1.72;90.37
30618;BME280;17384;51.214;9.202;2023-02-02T19:38:10;99445.94;;;1.74;90.45
30618;BME280;17384;51.214;9.202;2023-02-02T19:40:38;99459.31;;;1.84;90.03
30618;BME280;17384;51.214;9.202;2023-02-02T19:43:20;99453.53;;;1.79;90.27
30618;BME280;17384;51.214;9.202;2023-02-02T19:45:48;99454.38;;;1.79;90.02
30618;BME280;17384;51.214;9.202;2023-02-02T19:48:19;99457.91;;;1.80;89.99
30618;BME280;17384;51.214;9.202;2023-02-02T19:50:46;99456.91;;;1.81;89.92
30618;BME280;17384;51.214;9.202;2023-02-02T19:53:24;99448.19;;;1.79;89.95
30618;BME280;17384;51.214;9.202;2023-02-02T19:55:53;99471.28;;;1.80;90.18
30618;BME280;17384;51.214;9.202;2023-02-02T19:58:23;99459.16;;;1.76;90.08
30618;BME280;17384;51.214;9.202;2023-02-02T20:00:52;99465.94;;;1.80;90.20
30618;BME280;17384;51.214;9.202;2023-02-02T20:03:35;99458.31;;;1.85;90.31
30618;BME280;17384;51.214;9.202;2023-02-02T20:06:03;99454.81;;;1.84;90.26
30618;BME280;17384;51.214;9.202;2023-02-02T20:08:38;99456.34;;;1.87;90.01
30618;BME280;17384;51.214;9.202;2023-02-02T20:11:34;99454.94;;;1.83;89.66
30618;BME280;17384;51.214;9.202;2023-02-02T20:14:24;99456.63;;;1.84;89.84
30618;BME280;17384;51.214;9.202;2023-02-02T20:17:10;99441.84;;;1.80;89.97
30618;BME280;17384;51.214;9.202;2023-02-02T20:19:41;99447.34;;;1.78;90.12
30618;BME280;17384;51.214;9.202;2023-02-02T20:22:25;99445.94;;;1.84;90.34
30618;BME280;17384;51.214;9.202;2023-02-02T20:24:53;99445.94;;;1.84;90.30
30618;BME280;17384;51.214;9.202;2023-02-02T20:27:25;99453.09;;;1.83;90.31
30618;BME280;17384;51.214;9.202;2023-02-02T20:29:53;99456.50;;;1.85;90.25
30618;BME280;17384;51.214;9.202;2023-02-02T20:32:25;99448.88;;;1.81;90.25
30618;BME280;17384;51.214;9.202;2023-02-02T20:34:55;99454.81;;;1.84;90.79
30618;BME280;17384;51.214;9.202;2023-02-02T20:37:28;99447.91;;;1.91;90.68
30618;BME280;17384;51.214;9.202;2023-02-02T20:42:22;99443.81;;;1.87;90.64
30618;BME280;17384;51.214;9.202;2023-02-02T20:44:48;99445.03;;;1.93;90.62
30618;BME280;17384;51.214;9.202;2023-02-02T20:47:13;99437.56;;;1.96;90.87
30618;BME280;17384;51.214;9.202;2023-02-02T20:49:39;99446.59;;;1.95;90.94
30618;BME280;17384;51.214;9.202;2023-02-02T20:52:08;99452.09;;;1.94;90.78
30618;BME280;17384;51.214;9.202;2023-02-02T20:54:36;99456.00;;;1.99;91.07
30618;BME280;17384;51.214;9.202;2023-02-02T20:57:02;99444.03;;;2.03;91.04
30618;BME280;17384;51.214;9.202;2023-02-02T20:59:28;99445.28;;;2.09;90.87
30618;BME280;17384;51.214;9.202;2023-02-02T21:01:54;99448.25;;;2.16;90.65
30618;BME280;17384;51.214;9.202;2023-02-02T21:04:20;99448.66;;;2.11;90.85
30618;BME280;17384;51.214;9.202;2023-02-02T21:06:46;99438.66;;;2.13;90.69
30618;BME280;17384;51.214;9.202;2023-02-02T21:09:14;99438.00;;;2.01;90.82
30618;BME280;17384;51.214;9.202;2023-02-02T21:11:39;99443.06;;;1.95;90.95
30618;BME280;17384;51.214;9.202;2023-02-02T21:14:05;99442.22;;;1.94;91.11
30618;BME280;17384;51.214;9.202;2023-02-02T21:16:31;99445.88;;;2.03;91.30
30618;BME280;17384;51.214;9.202;2023-02-02T21:18:56;99442.78;;;1.98;91.05
30618;BME280;17384;51.214;9.202;2023-02-02T21:21:22;99446.84;;;2.02;90.96
30618;BME280;17384;51.214;9.202;2023-02-02T21:23:48;99444.47;;;1.99;91.25
30618;BME280;17384;51.214;9.202;2023-02-02T21:26:17;99451.50;;;2.00;91.15
30618;BME280;17384;51.214;9.202;2023-02-02T21:28:43;99436.63;;;1.88;90.92
30618;BME280;17384;51.214;9.202;2023-02-02T21:31:11;99443.25;;;1.84;91.25
30618;BME280;17384;51.214;9.202;2023-02-02T21:33:39;99440.28;;;1.87;91.39
30618;BME280;17384;51.214;9.202;2023-02-02T21:39:18;99451.56;;;1.90;91.53
30618;BME280;17384;51.214;9.202;2023-02-02T21:41:47;99430.16;;;1.90;91.63
30618;BME280;17384;51.214;9.202;2023-02-02T21:44:18;99444.16;;;2.12;91.84
30618;BME280;17384;51.214;9.202;2023-02-02T21:46:46;99443.72;;;2.16;92.04
30618;BME280;17384;51.214;9.202;2023-02-02T21:49:21;99450.56;;;2.28;91.98
30618;BME280;17384;51.214;9.202;2023-02-02T21:51:47;99444.44;;;2.73;93.12
30618;BME280;17384;51.214;9.202;2023-02-02T21:54:24;99438.69;;;2.68;92.59
30618;BME280;17384;51.214;9.202;2023-02-02T21:56:51;99445.50;;;2.80;92.58
30618;BME280;17384;51.214;9.202;2023-02-02T21:59:22;99448.63;;;2.76;92.24
30618;BME280;17384;51.214;9.202;2023-02-02T22:01:50;99447.28;;;2.71;92.26
30618;BME280;17384;51.214;9.202;2023-02-02T22:04:24;99448.19;;;2.80;92.18
30618;BME280;17384;51.214;9.202;2023-02-02T22:06:56;99443.19;;;3.13;92.83
30618;BME280;17384;51.214;9.202;2023-02-02T22:09:26;99448.78;;;3.37;93.09
30618;BME280;17384;51.214;9.202;2023-02-02T22:11:59;99458.66;;;3.36;92.78
30618;BME280;17384;51.214;9.202;2023-02-02T22:14:35;99455.06;;;3.46;92.87
30618;BME280;17384;51.214;9.202;2023-02-02T22:17:20;99448.84;;;3.45;92.50
30618;BME280;17384;51.214;9.202;2023-02-02T22:19:47;99447.97;;;3.62;92.43
30618;BME280;17384;51.214;9.202;2023-02-02T22:24:43;99450.97;;;4.03;92.70
30618;BME280;17384;51.214;9.202;2023-02-02T22:27:25;99455.81;;;3.99;92.80
30618;BME280;17384;51.214;9.202;2023-02-02T22:30:01;99448.75;;;4.24;92.74
30618;BME280;17384;51.214;9.202;2023-02-02T22:32:34;99443.28;;;4.34;92.57
30618;BME280;17384;51.214;9.202;2023-02-02T22:35:00;99447.81;;;4.41;91.99
30618;BME280;17384;51.214;9.202;2023-02-02T22:37:25;99449.22;;;4.54;91.85
30618;BME280;17384;51.214;9.202;2023-02-02T22:39:51;99448.59;;;4.60;91.44
30618;BME280;17384;51.214;9.202;2023-02-02T22:42:16;99447.03;;;4.49;91.12
30618;BME280;17384;51.214;9.202;2023-02-02T22:44:42;99447.56;;;4.53;91.31
30618;BME280;17384;51.214;9.202;2023-02-02T22:47:08;99439.22;;;4.38;91.53
30618;BME280;17384;51.214;9.202;2023-02-02T22:49:33;99436.22;;;4.33;91.48
30618;BME280;17384;51.214;9.202;2023-02-02T22:51:59;99437.75;;;4.43;91.53